Time;durP1;ratioP1;P1;durP2;ratioP2;P2;SDS_P1;SDS_P2;PMS_P1;PMS_P2;Temp;Humidity;BMP_temperature;BMP_pressure;BME280_temperature;BME280_humidity;BME280_pressure;Samples;Min_cycle;Max_cycle;Signal;HPM_P1;HPM_P2
2021/07/24 00:01:20;;;;;;;13.52;11.05;;;14.30;99.90;;;;;;5063618;28;20059;-66
2021/07/24 00:03:46;;;;;;;17.25;12.75;;;14.30;99.90;;;;;;5064069;28;20505;-66
2021/07/24 00:06:13;;;;;;;13.77;11.40;;;14.30;99.90;;;;;;5078755;28;20037;-66
2021/07/24 00:08:39;;;;;;;13.50;12.10;;;14.30;99.90;;;;;;5063134;28;20692;-66
2021/07/24 00:11:09;;;;;;;14.07;12.18;;;14.30;99.90;;;;;;5063900;28;20036;-66
2021/07/24 00:13:37;;;;;;;14.63;11.20;;;14.30;99.90;;;;;;5063094;28;20036;-66
2021/07/24 00:16:03;;;;;;;18.15;11.80;;;14.30;99.90;;;;;;5064958;28;20097;-66
2021/07/24 00:18:30;;;;;;;16.05;12.27;;;14.40;99.90;;;;;;5063868;28;20044;-66
2021/07/24 00:20:56;;;;;;;15.35;11.95;;;14.30;99.90;;;;;;5063179;28;20576;-66
2021/07/24 00:23:21;;;;;;;16.83;11.57;;;14.30;99.90;;;;;;5063338;28;20506;-66
2021/07/24 00:25:47;;;;;;;16.90;11.48;;;14.30;99.90;;;;;;5062823;28;20063;-66
2021/07/24 00:28:13;;;;;;;17.80;13.95;;;14.30;99.90;;;;;;5065454;28;20041;-67
2021/07/24 00:30:39;;;;;;;16.00;12.27;;;14.30;99.90;;;;;;5067299;28;20032;-66
2021/07/24 00:33:05;;;;;;;14.45;11.88;;;14.30;99.90;;;;;;5067150;28;20036;-66
2021/07/24 00:35:32;;;;;;;15.18;11.68;;;14.30;99.90;;;;;;5066888;28;20067;-67
2021/07/24 00:37:58;;;;;;;14.13;11.65;;;14.30;99.90;;;;;;5067332;28;20612;-67
2021/07/24 00:40:26;;;;;;;16.42;12.57;;;14.20;99.90;;;;;;5065317;28;20077;-67
2021/07/24 00:42:53;;;;;;;15.75;13.13;;;14.20;99.90;;;;;;5065994;28;20062;-66
2021/07/24 00:45:20;;;;;;;15.68;11.43;;;14.20;99.90;;;;;;5066156;28;20049;-66
2021/07/24 00:47:55;;;;;;;14.85;12.35;;;14.20;99.90;;;;;;5068063;28;20127;-66
2021/07/24 00:50:22;;;;;;;16.02;13.00;;;14.20;99.90;;;;;;5066483;28;20052;-67
2021/07/24 00:52:48;;;;;;;16.88;12.35;;;14.20;99.90;;;;;;5066649;28;20056;-66
2021/07/24 00:55:16;;;;;;;15.57;12.88;;;14.20;99.90;;;;;;5065953;28;20052;-66
2021/07/24 00:57:44;;;;;;;17.33;12.77;;;14.10;99.90;;;;;;5066656;28;20036;-66
2021/07/24 01:00:12;;;;;;;15.52;12.52;;;14.10;99.90;;;;;;5066541;28;20047;-66
2021/07/24 01:02:38;;;;;;;16.13;13.30;;;14.10;99.90;;;;;;5066191;28;20036;-67
2021/07/24 01:05:06;;;;;;;18.08;14.50;;;14.00;99.90;;;;;;5065918;28;20040;-67
2021/07/24 01:07:38;;;;;;;20.77;14.43;;;14.10;99.90;;;;;;5066495;28;20075;-68
2021/07/24 01:10:05;;;;;;;20.13;15.05;;;14.10;99.90;;;;;;5066256;28;20067;-69
2021/07/24 01:12:33;;;;;;;15.30;13.05;;;14.10;99.90;;;;;;5066339;28;20040;-69
2021/07/24 01:15:01;;;;;;;21.30;14.82;;;14.00;99.90;;;;;;5066625;28;20127;-69
2021/07/24 01:17:26;;;;;;;21.63;14.40;;;14.00;99.90;;;;;;5064877;28;20632;-69
2021/07/24 01:19:52;;;;;;;19.33;14.80;;;14.00;99.90;;;;;;5067104;28;20033;-69
2021/07/24 01:22:18;;;;;;;17.67;12.82;;;13.90;99.90;;;;;;5066856;28;20044;-69
2021/07/24 01:24:43;;;;;;;22.17;14.75;;;13.90;99.90;;;;;;5066847;28;20072;-69
2021/07/24 01:27:09;;;;;;;18.67;14.35;;;13.90;99.90;;;;;;5065839;28;20494;-69
2021/07/24 01:29:38;;;;;;;17.10;14.60;;;13.90;99.90;;;;;;5065790;28;20054;-69
2021/07/24 01:32:04;;;;;;;20.42;14.80;;;13.90;99.90;;;;;;5064516;28;20040;-69
2021/07/24 01:34:31;;;;;;;16.88;13.73;;;13.90;99.90;;;;;;5065730;28;20036;-69
2021/07/24 01:36:56;;;;;;;20.35;14.32;;;13.90;99.90;;;;;;5067047;28;20087;-70
2021/07/24 01:39:23;;;;;;;18.17;13.38;;;13.90;99.90;;;;;;5064144;28;20124;-69
2021/07/24 01:41:48;;;;;;;17.63;13.93;;;13.90;99.90;;;;;;5066140;28;20051;-69
2021/07/24 01:44:14;;;;;;;18.58;14.15;;;13.90;99.90;;;;;;5065364;28;20032;-69
2021/07/24 01:46:40;;;;;;;22.83;14.43;;;13.80;99.90;;;;;;5065386;28;20066;-69
2021/07/24 01:49:14;;;;;;;18.20;13.70;;;13.80;99.90;;;;;;5065405;28;20028;-69
2021/07/24 01:54:33;;;;;;;17.85;14.55;;;13.80;99.90;;;;;;5063235;28;20055;-69
2021/07/24 01:57:04;;;;;;;16.70;13.63;;;13.70;99.90;;;;;;5065318;28;20051;-69
2021/07/24 01:59:35;;;;;;;20.85;13.25;;;13.80;99.90;;;;;;5062303;28;20675;-69
2021/07/24 02:02:02;;;;;;;16.80;12.93;;;13.70;99.90;;;;;;5065519;28;20068;-69
2021/07/24 02:04:33;;;;;;;17.73;13.25;;;13.70;99.90;;;;;;5063026;28;20040;-69
2021/07/24 02:06:58;;;;;;;16.17;13.43;;;13.70;99.90;;;;;;5062720;28;20494;-69
2021/07/24 02:09:24;;;;;;;15.70;12.93;;;13.70;99.90;;;;;;5063636;28;20048;-69
2021/07/24 02:11:51;;;;;;;16.65;12.90;;;13.60;99.90;;;;;;5064133;28;20055;-69
2021/07/24 02:14:17;;;;;;;15.45;12.88;;;13.60;99.90;;;;;;5064255;28;20120;-69
2021/07/24 02:16:43;;;;;;;18.73;13.13;;;13.60;99.90;;;;;;5063646;28;20107;-69
2021/07/24 02:19:10;;;;;;;15.07;13.02;;;13.60;99.90;;;;;;5064247;28;20074;-69
2021/07/24 02:21:38;;;;;;;17.33;13.25;;;13.60;99.90;;;;;;5065180;28;20044;-69
2021/07/24 02:24:04;;;;;;;16.55;13.10;;;13.60;99.90;;;;;;5065520;28;20434;-69
2021/07/24 02:26:30;;;;;;;20.50;14.18;;;13.50;99.90;;;;;;5066649;28;20040;-69
2021/07/24 02:28:55;;;;;;;16.55;13.45;;;13.50;99.90;;;;;;5067226;28;20044;-69
2021/07/24 02:31:21;;;;;;;22.83;14.18;;;13.50;99.90;;;;;;5068381;28;20486;-69
2021/07/24 02:33:47;;;;;;;21.95;15.52;;;13.50;99.90;;;;;;5066668;28;20033;-69
2021/07/24 02:36:12;;;;;;;18.83;15.13;;;13.40;99.90;;;;;;5065510;28;20040;-69
2021/07/24 02:38:38;;;;;;;21.77;16.10;;;13.40;99.90;;;;;;5067124;28;20044;-69
2021/07/24 02:41:05;;;;;;;21.75;16.05;;;13.40;99.90;;;;;;5067267;28;20048;-69
2021/07/24 02:43:31;;;;;;;25.50;17.55;;;13.30;99.90;;;;;;5066963;28;20093;-68
2021/07/24 02:45:56;;;;;;;26.33;17.88;;;13.30;99.90;;;;;;5065899;28;20059;-69
2021/07/24 02:48:22;;;;;;;28.23;17.05;;;13.30;99.90;;;;;;5066085;28;20044;-69
2021/07/24 02:50:48;;;;;;;20.30;16.00;;;13.30;99.90;;;;;;5066198;28;20628;-68
2021/07/24 02:53:14;;;;;;;24.95;17.85;;;13.30;99.90;;;;;;5066814;28;20070;-68
2021/07/24 02:55:40;;;;;;;26.20;18.08;;;13.20;99.90;;;;;;5066616;28;20448;-69
2021/07/24 02:58:05;;;;;;;24.08;16.88;;;13.20;99.90;;;;;;5067387;28;20048;-69
2021/07/24 03:00:31;;;;;;;24.98;16.88;;;13.30;99.90;;;;;;5064065;28;20050;-69
2021/07/24 03:02:57;;;;;;;25.10;18.33;;;13.30;99.90;;;;;;5066821;28;20442;-69
2021/07/24 03:05:22;;;;;;;28.17;17.20;;;13.30;99.90;;;;;;5065728;28;20040;-69
2021/07/24 03:07:48;;;;;;;34.45;19.95;;;13.30;99.90;;;;;;5067231;28;20471;-68
2021/07/24 03:10:14;;;;;;;29.70;18.90;;;13.30;99.90;;;;;;5064918;28;20025;-68
2021/07/24 03:12:40;;;;;;;28.27;18.80;;;13.20;99.90;;;;;;5063068;28;20040;-69
2021/07/24 03:15:06;;;;;;;31.88;19.75;;;13.20;99.90;;;;;;5066350;28;20045;-68
2021/07/24 03:17:32;;;;;;;31.02;20.27;;;13.20;99.90;;;;;;5064198;28;20381;-68
2021/07/24 03:19:58;;;;;;;32.65;19.88;;;13.30;99.90;;;;;;5067373;28;20123;-68
2021/07/24 03:22:24;;;;;;;33.20;21.60;;;13.30;99.90;;;;;;5064924;28;20660;-69
2021/07/24 03:24:54;;;;;;;31.15;18.83;;;13.30;99.90;;;;;;5066650;28;20032;-69
2021/07/24 03:27:20;;;;;;;32.72;20.52;;;13.30;99.90;;;;;;5065223;28;20064;-69
2021/07/24 03:29:46;;;;;;;30.33;19.60;;;13.30;99.90;;;;;;5064267;28;20033;-69
2021/07/24 03:32:11;;;;;;;34.22;21.33;;;13.20;99.90;;;;;;5064104;28;20059;-68
2021/07/24 03:34:37;;;;;;;28.98;18.63;;;13.30;99.90;;;;;;5065990;28;20058;-68
2021/07/24 03:37:03;;;;;;;32.58;21.02;;;13.30;99.90;;;;;;5065548;28;20632;-68
2021/07/24 03:39:29;;;;;;;31.60;19.15;;;13.30;99.90;;;;;;5065406;28;20318;-69
2021/07/24 03:41:55;;;;;;;27.17;18.95;;;13.30;99.90;;;;;;5064864;28;20045;-69
2021/07/24 03:44:20;;;;;;;31.00;19.70;;;13.30;99.90;;;;;;5062952;28;20407;-68
2021/07/24 03:46:46;;;;;;;34.88;19.38;;;13.30;99.90;;;;;;5063356;28;20037;-68
2021/07/24 03:49:14;;;;;;;31.48;20.70;;;13.30;99.90;;;;;;5065409;28;20048;-69
2021/07/24 03:51:39;;;;;;;33.38;20.80;;;13.30;99.90;;;;;;5065549;28;20736;-68
2021/07/24 03:54:05;;;;;;;28.58;19.40;;;13.30;99.90;;;;;;5063714;28;20498;-68
2021/07/24 03:56:32;;;;;;;30.30;20.02;;;13.30;99.90;;;;;;5065049;28;20037;-69
2021/07/24 03:58:58;;;;;;;29.95;19.50;;;13.30;99.90;;;;;;5064630;28;20043;-69
2021/07/24 04:01:26;;;;;;;29.23;19.95;;;13.30;99.90;;;;;;5064795;28;20045;-69
2021/07/24 04:03:52;;;;;;;29.77;19.45;;;13.40;99.90;;;;;;5068194;28;20135;-69
2021/07/24 04:06:26;;;;;;;31.20;18.75;;;13.40;99.90;;;;;;5066260;28;20032;-69
2021/07/24 04:08:55;;;;;;;28.38;17.90;;;13.50;99.90;;;;;;5063701;28;20080;-69
2021/07/24 04:11:23;;;;;;;28.88;19.80;;;13.50;99.90;;;;;;5067905;28;20055;-69
2021/07/24 04:13:49;;;;;;;28.13;18.73;;;13.50;99.90;;;;;;5069929;28;20051;-69
2021/07/24 04:16:15;;;;;;;27.80;18.85;;;13.50;99.90;;;;;;5069002;28;20041;-69
2021/07/24 04:18:41;;;;;;;30.83;19.98;;;13.60;99.90;;;;;;5068882;28;20151;-69
2021/07/24 04:21:07;;;;;;;30.33;19.67;;;13.60;99.90;;;;;;5068193;28;20406;-69
2021/07/24 04:23:33;;;;;;;28.23;18.30;;;13.70;99.90;;;;;;5068020;28;20051;-69
2021/07/24 04:25:59;;;;;;;27.23;17.77;;;13.70;99.90;;;;;;5069517;28;20040;-69
2021/07/24 04:28:25;;;;;;;30.85;18.58;;;13.70;99.90;;;;;;5068594;28;20402;-69
2021/07/24 04:30:50;;;;;;;27.00;17.98;;;13.80;99.90;;;;;;5066869;28;20032;-69
2021/07/24 04:33:16;;;;;;;23.38;17.27;;;13.90;99.90;;;;;;5066732;28;20048;-69
2021/07/24 04:35:49;;;;;;;23.80;17.58;;;14.00;99.90;;;;;;5069690;28;20032;-69
2021/07/24 04:38:16;;;;;;;26.80;17.77;;;14.00;99.90;;;;;;5067673;28;20040;-69
2021/07/24 04:40:43;;;;;;;23.35;17.63;;;14.10;99.90;;;;;;5069693;28;20068;-69
2021/07/24 04:43:09;;;;;;;24.20;16.98;;;14.20;99.90;;;;;;5067186;28;20563;-69
2021/07/24 04:45:43;;;;;;;21.13;16.83;;;14.20;99.90;;;;;;5069015;28;20040;-69
2021/07/24 04:48:10;;;;;;;25.83;17.80;;;14.40;99.90;;;;;;5067551;28;20037;-69
2021/07/24 04:50:48;;;;;;;19.52;16.23;;;14.50;99.90;;;;;;5067990;28;20037;-69
2021/07/24 04:53:16;;;;;;;22.90;16.48;;;14.60;99.90;;;;;;5066410;28;20119;-69
2021/07/24 04:55:42;;;;;;;23.33;16.75;;;14.80;99.90;;;;;;5067438;28;20037;-69
2021/07/24 04:58:09;;;;;;;19.20;15.50;;;15.00;99.90;;;;;;5067962;28;20044;-69
2021/07/24 05:00:37;;;;;;;19.63;15.32;;;15.00;99.90;;;;;;5067993;28;20579;-69
2021/07/24 05:03:06;;;;;;;20.00;15.80;;;15.10;99.90;;;;;;5068253;28;20036;-69
2021/07/24 05:05:35;;;;;;;21.75;16.38;;;15.00;99.90;;;;;;5068613;28;20043;-69
2021/07/24 05:08:02;;;;;;;19.63;15.02;;;15.10;99.90;;;;;;5068255;28;20115;-69
2021/07/24 05:10:28;;;;;;;19.17;15.77;;;15.00;99.90;;;;;;5067857;28;20039;-68
2021/07/24 05:12:53;;;;;;;19.40;15.90;;;15.00;99.90;;;;;;5068564;28;20111;-68
2021/07/24 05:15:20;;;;;;;22.38;16.25;;;15.00;99.90;;;;;;5067185;28;20091;-69
2021/07/24 05:17:46;;;;;;;18.85;15.50;;;15.20;99.90;;;;;;5067457;28;20551;-69
2021/07/24 05:20:12;;;;;;;18.20;14.30;;;15.30;99.90;;;;;;5067410;28;20479;-69
2021/07/24 05:22:37;;;;;;;15.73;13.98;;;15.50;99.90;;;;;;5064221;28;20410;-69
2021/07/24 05:25:04;;;;;;;14.38;12.02;;;16.20;99.90;;;;;;5068515;28;20147;-69
2021/07/24 05:27:30;;;;;;;13.82;12.32;;;17.40;99.90;;;;;;5066367;28;20743;-69
2021/07/24 05:29:56;;;;;;;15.10;12.05;;;18.80;99.90;;;;;;5067262;28;20050;-69
2021/07/24 05:32:22;;;;;;;15.07;11.80;;;20.00;99.90;;;;;;5067490;28;20036;-69
2021/07/24 05:34:47;;;;;;;13.10;10.98;;;21.20;99.90;;;;;;5066430;28;20498;-69
2021/07/24 05:37:13;;;;;;;12.32;10.98;;;21.90;99.90;;;;;;5066937;28;20401;-69
2021/07/24 05:39:39;;;;;;;12.00;10.60;;;22.70;99.90;;;;;;5068527;28;20483;-69
2021/07/24 05:42:08;;;;;;;12.63;10.90;;;23.30;98.00;;;;;;5068755;28;20048;-69
2021/07/24 05:44:34;;;;;;;14.07;11.45;;;23.80;96.60;;;;;;5069276;28;20032;-69
2021/07/24 05:47:02;;;;;;;11.57;10.35;;;24.40;95.50;;;;;;5067501;28;20044;-69
2021/07/24 05:49:28;;;;;;;12.07;10.88;;;24.80;94.00;;;;;;5066206;28;20093;-69
2021/07/24 05:51:54;;;;;;;15.95;10.68;;;25.20;92.80;;;;;;5067945;28;20597;-69
2021/07/24 05:54:22;;;;;;;12.50;10.98;;;25.60;90.60;;;;;;5068383;28;20062;-70
2021/07/24 05:56:49;;;;;;;13.75;10.38;;;25.70;88.40;;;;;;5066974;28;20040;-70
2021/07/24 05:59:15;;;;;;;12.25;10.95;;;25.00;90.00;;;;;;5067645;28;20075;-69
2021/07/24 06:01:41;;;;;;;11.80;10.20;;;24.00;91.30;;;;;;5068434;28;20047;-69
2021/07/24 06:04:08;;;;;;;12.68;10.35;;;23.50;91.90;;;;;;5066452;28;20044;-69
2021/07/24 06:06:34;;;;;;;14.90;10.80;;;23.00;94.10;;;;;;5067457;28;20045;-69
2021/07/24 06:09:01;;;;;;;15.93;10.48;;;22.70;94.90;;;;;;5068895;28;20040;-70
2021/07/24 06:11:27;;;;;;;14.18;10.93;;;22.50;95.90;;;;;;5068715;28;20036;-69
2021/07/24 06:13:53;;;;;;;12.10;10.88;;;22.40;96.60;;;;;;5068977;28;20167;-69
2021/07/24 06:16:18;;;;;;;12.85;11.50;;;22.20;97.00;;;;;;5063524;28;20135;-69
2021/07/24 06:18:44;;;;;;;16.25;11.18;;;22.10;97.00;;;;;;5066205;28;20809;-69
2021/07/24 06:21:14;;;;;;;14.50;11.77;;;21.70;97.30;;;;;;5069839;28;20094;-69
2021/07/24 06:23:42;;;;;;;14.60;10.52;;;21.40;98.20;;;;;;5069531;28;20060;-69
2021/07/24 06:26:08;;;;;;;12.38;11.18;;;21.30;98.60;;;;;;5068318;28;20121;-69
2021/07/24 06:28:36;;;;;;;12.45;10.73;;;21.10;99.10;;;;;;5066292;28;20037;-69
2021/07/24 06:31:04;;;;;;;12.23;10.13;;;21.20;99.20;;;;;;5067860;28;20036;-69
2021/07/24 06:33:30;;;;;;;16.63;12.85;;;21.20;99.60;;;;;;5065933;28;20051;-69
2021/07/24 06:35:57;;;;;;;12.70;11.43;;;21.10;99.40;;;;;;5068171;28;20059;-69
2021/07/24 06:38:24;;;;;;;13.98;9.85;;;21.00;99.10;;;;;;5066361;28;20082;-69
2021/07/24 06:40:51;;;;;;;11.23;9.93;;;21.10;99.90;;;;;;5066710;28;20043;-69
2021/07/24 06:43:16;;;;;;;14.20;10.40;;;21.10;99.90;;;;;;5066159;28;20036;-69
2021/07/24 06:45:42;;;;;;;11.68;10.35;;;21.30;99.90;;;;;;5066971;28;20054;-69
2021/07/24 06:48:08;;;;;;;15.07;9.00;;;21.40;99.80;;;;;;5066032;28;20049;-69
2021/07/24 06:50:35;;;;;;;14.02;10.05;;;21.40;99.10;;;;;;5065451;28;20041;-69
2021/07/24 06:53:01;;;;;;;15.23;9.25;;;21.30;98.60;;;;;;5068353;28;20135;-69
2021/07/24 06:55:27;;;;;;;10.20;8.45;;;21.40;99.50;;;;;;5069068;28;20036;-69
2021/07/24 06:57:54;;;;;;;11.27;9.90;;;21.50;99.40;;;;;;5067852;28;20044;-69
2021/07/24 07:00:20;;;;;;;9.85;8.50;;;21.80;99.50;;;;;;5066510;28;20047;-69
2021/07/24 07:02:45;;;;;;;9.15;8.25;;;21.60;98.90;;;;;;5061576;28;20352;-69
2021/07/24 07:05:11;;;;;;;14.18;8.98;;;21.60;98.60;;;;;;5066481;28;20055;-69
2021/07/24 07:07:37;;;;;;;10.93;9.02;;;21.70;99.10;;;;;;5066590;28;20479;-70
2021/07/24 07:10:04;;;;;;;9.68;7.72;;;21.70;99.20;;;;;;5064494;28;20441;-70
2021/07/24 07:12:30;;;;;;;10.85;7.90;;;21.50;98.70;;;;;;5063870;28;20388;-71
2021/07/24 07:14:58;;;;;;;9.18;7.68;;;21.50;98.40;;;;;;5068405;28;20047;-70
2021/07/24 07:17:24;;;;;;;7.80;6.95;;;21.50;98.60;;;;;;5066977;28;20045;-70
2021/07/24 07:19:49;;;;;;;8.60;6.55;;;21.40;98.40;;;;;;5065729;28;20417;-70
2021/07/24 07:22:15;;;;;;;7.47;6.78;;;21.50;98.20;;;;;;5067726;28;20041;-70
2021/07/24 07:24:41;;;;;;;7.90;7.07;;;21.70;98.80;;;;;;5067477;28;20448;-70
2021/07/24 07:27:07;;;;;;;9.63;6.88;;;21.80;98.70;;;;;;5065776;28;20110;-70
2021/07/24 07:29:32;;;;;;;7.57;6.78;;;22.00;98.50;;;;;;5066124;28;20036;-70
2021/07/24 07:31:58;;;;;;;10.05;7.03;;;22.10;97.90;;;;;;5066430;28;20036;-70
2021/07/24 07:34:24;;;;;;;10.73;7.00;;;22.00;97.00;;;;;;5066900;28;20040;-70
2021/07/24 07:36:49;;;;;;;9.02;7.03;;;22.20;97.80;;;;;;5067903;28;20165;-70
2021/07/24 07:39:15;;;;;;;8.30;7.18;;;22.30;97.50;;;;;;5066793;28;20116;-70
2021/07/24 07:41:41;;;;;;;9.02;8.13;;;22.40;96.90;;;;;;5065037;28;20041;-70
2021/07/24 07:44:07;;;;;;;13.23;8.18;;;22.10;95.90;;;;;;5066698;28;20215;-70
2021/07/24 07:46:32;;;;;;;11.20;7.57;;;22.10;96.60;;;;;;5068386;28;20084;-70
2021/07/24 07:48:59;;;;;;;12.60;8.48;;;22.20;97.30;;;;;;5068276;28;20045;-70
2021/07/24 07:51:24;;;;;;;10.02;7.53;;;22.40;97.30;;;;;;5066803;28;20112;-70
2021/07/24 07:53:50;;;;;;;9.05;8.15;;;22.40;97.80;;;;;;5064970;28;20124;-70
2021/07/24 07:56:16;;;;;;;9.45;7.65;;;22.30;97.30;;;;;;5068500;28;20024;-70
2021/07/24 07:58:42;;;;;;;12.80;7.85;;;22.40;97.40;;;;;;5065494;28;20130;-70
2021/07/24 08:01:12;;;;;;;8.52;7.72;;;22.30;97.30;;;;;;5067933;28;20473;-71
2021/07/24 08:03:42;;;;;;;24.05;8.30;;;22.30;96.70;;;;;;5063647;28;20395;-70
2021/07/24 08:06:08;;;;;;;8.68;7.80;;;22.20;96.80;;;;;;5068198;28;20041;-70
2021/07/24 08:08:34;;;;;;;10.05;7.80;;;22.30;97.00;;;;;;5067287;28;20048;-70
2021/07/24 08:10:59;;;;;;;12.52;7.57;;;22.30;97.00;;;;;;5065002;28;20041;-70
2021/07/24 08:13:27;;;;;;;10.25;7.72;;;22.50;97.60;;;;;;5068089;28;20101;-70
2021/07/24 08:15:52;;;;;;;9.15;7.00;;;22.60;97.50;;;;;;5068476;28;20048;-70
2021/07/24 08:18:18;;;;;;;9.02;7.35;;;22.50;96.50;;;;;;5066497;28;20044;-70
2021/07/24 08:20:44;;;;;;;8.65;7.38;;;22.80;96.70;;;;;;5062288;28;20108;-71
2021/07/24 08:23:13;;;;;;;9.57;7.57;;;22.90;96.60;;;;;;5064212;28;20087;-71
2021/07/24 08:25:40;;;;;;;9.35;7.20;;;23.00;96.00;;;;;;5065117;28;20455;-70
2021/07/24 08:28:06;;;;;;;10.68;5.97;;;23.00;96.10;;;;;;5063840;28;20073;-70
2021/07/24 08:30:36;;;;;;;8.77;5.70;;;23.00;96.40;;;;;;5061031;28;20047;-70
2021/07/24 08:33:02;;;;;;;6.82;6.13;;;22.90;95.00;;;;;;5062226;28;20041;-70
2021/07/24 08:35:28;;;;;;;7.10;5.80;;;23.10;95.90;;;;;;5064964;28;20418;-70
2021/07/24 08:37:54;;;;;;;6.35;5.75;;;23.30;96.70;;;;;;5063307;28;20048;-70
2021/07/24 08:40:20;;;;;;;5.95;5.35;;;23.30;95.70;;;;;;5065754;28;20054;-70
2021/07/24 08:42:46;;;;;;;12.50;6.75;;;23.40;95.90;;;;;;5067294;28;20044;-69
2021/07/24 08:45:14;;;;;;;9.65;6.82;;;23.60;96.70;;;;;;5061854;28;20055;-69
2021/07/24 08:47:40;;;;;;;8.15;6.40;;;23.80;96.10;;;;;;5076460;28;20087;-67
2021/07/24 08:50:08;;;;;;;9.73;5.95;;;24.00;94.50;;;;;;5064011;28;20040;-67
2021/07/24 08:52:34;;;;;;;7.85;6.10;;;23.90;94.80;;;;;;5062591;28;20489;-68
2021/07/24 08:55:03;;;;;;;8.40;6.15;;;24.00;94.80;;;;;;5065318;28;20163;-68
2021/07/24 08:57:34;;;;;;;8.98;5.80;;;23.80;94.60;;;;;;5064668;28;20037;-67
2021/07/24 09:00:17;;;;;;;8.18;5.85;;;23.80;94.90;;;;;;5066275;28;20118;-66
2021/07/24 09:02:47;;;;;;;10.38;7.35;;;23.80;95.20;;;;;;5065826;28;20040;-67
2021/07/24 09:05:15;;;;;;;6.53;5.88;;;23.80;94.50;;;;;;5066695;28;20041;-67
2021/07/24 09:07:46;;;;;;;11.02;6.00;;;23.80;94.80;;;;;;5067033;28;20501;-67
2021/07/24 09:10:13;;;;;;;10.57;7.03;;;23.80;94.80;;;;;;5066387;28;20032;-67
2021/07/24 09:12:44;;;;;;;7.82;6.45;;;23.80;95.30;;;;;;5064983;28;20068;-67
2021/07/24 09:15:13;;;;;;;7.18;6.00;;;23.80;94.90;;;;;;5064940;28;20037;-67
2021/07/24 09:17:40;;;;;;;6.88;6.18;;;23.80;95.00;;;;;;5065047;28;20044;-67
2021/07/24 09:20:06;;;;;;;8.68;5.68;;;23.80;94.90;;;;;;5066133;28;20044;-67
2021/07/24 09:22:36;;;;;;;9.35;5.50;;;23.80;95.80;;;;;;5065173;28;20104;-67
2021/07/24 09:25:14;;;;;;;10.25;5.60;;;23.90;96.10;;;;;;5065026;28;20048;-67
2021/07/24 09:27:55;;;;;;;10.13;6.32;;;23.90;96.10;;;;;;5065187;28;20040;-67
2021/07/24 09:30:23;;;;;;;7.10;6.30;;;24.00;95.90;;;;;;5064056;28;20036;-67
2021/07/24 09:33:00;;;;;;;8.13;5.70;;;23.90;94.40;;;;;;5063369;28;20072;-67
2021/07/24 09:35:41;;;;;;;8.23;5.75;;;23.80;95.40;;;;;;5063309;28;20036;-67
2021/07/24 09:38:13;;;;;;;7.47;6.55;;;23.70;95.80;;;;;;5065339;28;20056;-67
2021/07/24 09:40:44;;;;;;;8.15;6.22;;;23.60;95.00;;;;;;5064856;28;20033;-67
2021/07/24 09:43:41;;;;;;;7.75;5.75;;;23.70;95.90;;;;;;5065451;28;20118;-67
2021/07/24 09:46:11;;;;;;;8.27;5.93;;;23.80;96.30;;;;;;5063535;28;20467;-67
2021/07/24 09:48:38;;;;;;;6.03;5.45;;;23.80;96.00;;;;;;5062494;28;20032;-67
2021/07/24 09:51:03;;;;;;;8.68;6.18;;;23.90;95.80;;;;;;5063079;28;20043;-66
2021/07/24 09:53:39;;;;;;;8.52;6.40;;;24.00;95.80;;;;;;5063133;28;20049;-67
2021/07/24 09:56:06;;;;;;;9.02;5.63;;;24.00;95.20;;;;;;5063260;28;20036;-66
2021/07/24 09:58:31;;;;;;;6.80;5.80;;;24.10;95.60;;;;;;5059435;28;20063;-67
2021/07/24 10:01:09;;;;;;;9.43;5.85;;;24.20;96.20;;;;;;5061068;28;20157;-67
2021/07/24 10:03:38;;;;;;;6.70;6.10;;;24.30;96.70;;;;;;5062659;28;20056;-67
2021/07/24 10:06:12;;;;;;;12.55;6.78;;;24.40;96.00;;;;;;5063846;28;20032;-67
2021/07/24 10:08:40;;;;;;;12.23;7.00;;;24.50;95.20;;;;;;5063512;28;20039;-67
2021/07/24 10:11:07;;;;;;;9.20;6.68;;;24.40;95.30;;;;;;5062564;28;20043;-67
2021/07/24 10:13:33;;;;;;;7.85;6.07;;;24.20;95.00;;;;;;5062898;28;20036;-67
2021/07/24 10:16:00;;;;;;;9.00;6.63;;;24.10;95.90;;;;;;5064735;28;20102;-67
2021/07/24 10:18:26;;;;;;;10.10;5.75;;;24.20;96.70;;;;;;5063227;28;20032;-67
2021/07/24 10:20:52;;;;;;;7.95;6.18;;;24.20;97.30;;;;;;5066512;28;20047;-67
2021/07/24 10:23:23;;;;;;;10.73;6.07;;;24.40;95.90;;;;;;5063683;28;20746;-68
2021/07/24 10:26:15;;;;;;;14.48;6.57;;;24.30;94.70;;;;;;5064830;28;20169;-67
2021/07/24 10:29:04;;;;;;;9.50;5.90;;;24.30;96.40;;;;;;5064566;28;20051;-67
2021/07/24 10:31:48;;;;;;;8.30;6.10;;;24.50;97.20;;;;;;5062167;28;20052;-67
2021/07/24 10:34:19;;;;;;;7.22;5.55;;;24.70;95.60;;;;;;5063563;28;20045;-68
2021/07/24 10:36:45;;;;;;;13.35;6.32;;;24.90;94.80;;;;;;5062818;28;20036;-68
2021/07/24 10:39:16;;;;;;;8.25;5.97;;;24.80;94.50;;;;;;5063955;28;20483;-67
2021/07/24 10:41:46;;;;;;;8.82;6.43;;;25.00;95.80;;;;;;5064460;28;20041;-67
2021/07/24 10:44:15;;;;;;;8.40;6.32;;;25.00;94.80;;;;;;5064121;28;20086;-67
2021/07/24 10:46:41;;;;;;;8.35;6.47;;;25.10;94.90;;;;;;5063431;28;20044;-68
2021/07/24 10:49:07;;;;;;;9.10;7.00;;;24.90;94.10;;;;;;5062827;28;20032;-68
2021/07/24 10:51:55;;;;;;;9.27;7.13;;;24.80;94.20;;;;;;5063938;28;20093;-68
2021/07/24 10:54:21;;;;;;;8.57;6.65;;;24.80;94.90;;;;;;5061380;28;20032;-67
2021/07/24 10:56:47;;;;;;;15.13;7.90;;;24.80;94.70;;;;;;5062214;28;20040;-67
2021/07/24 10:59:13;;;;;;;10.40;7.22;;;24.90;95.80;;;;;;5061261;28;20051;-67
2021/07/24 11:01:50;;;;;;;14.45;6.00;;;25.10;96.50;;;;;;5062336;28;20048;-68
2021/07/24 11:04:34;;;;;;;7.47;6.75;;;25.20;95.00;;;;;;5062805;28;20048;-68
2021/07/24 11:07:12;;;;;;;15.05;7.32;;;25.40;94.90;;;;;;5061780;28;20037;-68
2021/07/24 11:09:42;;;;;;;8.40;7.30;;;25.50;93.90;;;;;;5063508;28;20036;-68
2021/07/24 11:12:09;;;;;;;11.13;7.22;;;25.50;94.70;;;;;;5062433;28;20506;-68
2021/07/24 11:14:34;;;;;;;9.57;7.30;;;25.60;95.00;;;;;;5060975;28;20158;-68
2021/07/24 11:19:36;;;;;;;11.73;8.48;;;25.20;93.30;;;;;;5063689;28;20086;-67
2021/07/24 11:22:22;;;;;;;11.27;8.00;;;25.20;93.80;;;;;;5061638;28;20468;-67
2021/07/24 11:24:50;;;;;;;;;;;25.20;94.60;;;;;;5061266;28;20044;-67
2021/07/24 11:27:29;;;;;;;8.00;7.20;;;25.20;94.90;;;;;;5059907;28;20018;-67
2021/07/24 11:30:09;;;;;;;8.88;7.97;;;25.20;95.10;;;;;;5062320;28;20068;-67
2021/07/24 11:32:44;;;;;;;10.80;8.25;;;25.20;94.40;;;;;;5058589;28;20044;-67
2021/07/24 11:35:15;;;;;;;8.65;7.38;;;25.20;94.60;;;;;;5064031;28;20049;-67
2021/07/24 11:37:40;;;;;;;8.73;7.38;;;25.10;94.10;;;;;;5061575;28;20392;-67
2021/07/24 11:40:11;;;;;;;9.27;7.25;;;25.20;94.30;;;;;;5062470;28;20044;-67
2021/07/24 11:42:37;;;;;;;19.13;8.02;;;25.20;95.30;;;;;;5060916;28;20652;-67
2021/07/24 11:45:04;;;;;;;9.48;7.22;;;25.20;94.60;;;;;;5058167;28;20050;-67
2021/07/24 11:47:30;;;;;;;13.27;7.80;;;25.30;95.60;;;;;;5061472;28;20101;-67
2021/07/24 11:50:17;;;;;;;9.48;7.35;;;25.20;94.80;;;;;;5061387;28;20036;-67
2021/07/24 11:52:48;;;;;;;7.85;6.95;;;25.30;94.40;;;;;;5060985;28;20041;-67
2021/07/24 11:55:28;;;;;;;10.23;7.22;;;25.30;94.90;;;;;;5060419;28;20059;-67
2021/07/24 11:58:06;;;;;;;9.00;7.00;;;25.30;95.30;;;;;;5061803;28;20040;-67
2021/07/24 12:00:38;;;;;;;6.93;6.22;;;25.30;95.70;;;;;;5061797;28;20032;-67
2021/07/24 12:03:21;;;;;;;10.38;6.95;;;25.30;95.10;;;;;;5060985;28;20094;-67
2021/07/24 12:05:49;;;;;;;10.63;7.03;;;25.30;95.10;;;;;;5061214;28;20049;-67
2021/07/24 12:08:17;;;;;;;9.10;7.18;;;25.30;94.90;;;;;;5061110;28;20178;-68
2021/07/24 12:10:47;;;;;;;10.77;7.43;;;25.20;94.50;;;;;;5060613;28;20044;-67
2021/07/24 12:13:18;;;;;;;10.80;8.00;;;25.20;95.50;;;;;;5077777;28;20497;-67
2021/07/24 12:15:52;;;;;;;8.63;7.38;;;25.20;95.90;;;;;;5060708;28;20041;-68
2021/07/24 12:18:19;;;;;;;10.68;7.32;;;25.20;95.20;;;;;;5061363;28;20090;-67
2021/07/24 12:20:45;;;;;;;8.80;7.00;;;25.20;95.00;;;;;;5059451;28;20083;-67
2021/07/24 12:23:21;;;;;;;7.63;6.60;;;25.10;95.50;;;;;;5059011;28;20962;-67
2021/07/24 12:26:08;;;;;;;11.93;6.82;;;25.10;95.00;;;;;;5065118;28;20072;-67
2021/07/24 12:28:34;;;;;;;7.85;7.03;;;25.20;95.80;;;;;;5059299;28;21864;-67
2021/07/24 12:31:20;;;;;;;8.35;7.35;;;25.20;95.00;;;;;;5066175;28;20036;-67
2021/07/24 12:33:47;;;;;;;11.25;7.15;;;25.10;95.10;;;;;;5067076;28;20466;-67
2021/07/24 12:36:17;;;;;;;8.82;7.00;;;25.10;94.20;;;;;;5065832;28;20032;-67
2021/07/24 12:38:43;;;;;;;10.02;6.45;;;25.00;95.00;;;;;;5063475;28;20118;-67
2021/07/24 12:41:08;;;;;;;8.15;6.35;;;25.20;95.90;;;;;;5065326;28;20111;-67
2021/07/24 12:43:37;;;;;;;8.68;7.05;;;25.20;95.60;;;;;;5064183;28;20116;-67
2021/07/24 12:46:16;;;;;;;7.95;6.57;;;25.20;94.80;;;;;;5065405;28;20040;-67